sensor_id;sensor_type;location;lat;lon;timestamp;P1;durP1;ratioP1;P2;durP2;ratioP2
79792;SDS011;69279;49.072;17.462;2023-07-08T00:00:45;6.07;;;4.40;;
79792;SDS011;69279;49.072;17.462;2023-07-08T00:03:13;6.13;;;4.13;;
79792;SDS011;69279;49.072;17.462;2023-07-08T00:05:41;7.07;;;4.45;;
79792;SDS011;69279;49.072;17.462;2023-07-08T00:08:13;5.97;;;4.70;;
79792;SDS011;69279;49.072;17.462;2023-07-08T00:10:39;6.70;;;4.15;;
79792;SDS011;69279;49.072;17.462;2023-07-08T00:13:04;5.95;;;4.13;;
79792;SDS011;69279;49.072;17.462;2023-07-08T00:15:30;7.40;;;4.72;;
79792;SDS011;69279;49.072;17.462;2023-07-08T00:17:57;5.78;;;4.40;;
79792;SDS011;69279;49.072;17.462;2023-07-08T00:20:43;6.03;;;4.05;;
79792;SDS011;69279;49.072;17.462;2023-07-08T00:23:10;6.60;;;4.22;;
79792;SDS011;69279;49.072;17.462;2023-07-08T00:25:36;5.68;;;4.43;;
79792;SDS011;69279;49.072;17.462;2023-07-08T00:28:04;5.70;;;4.20;;
79792;SDS011;69279;49.072;17.462;2023-07-08T00:30:33;5.70;;;3.80;;
79792;SDS011;69279;49.072;17.462;2023-07-08T00:32:59;5.25;;;4.00;;
79792;SDS011;69279;49.072;17.462;2023-07-08T00:35:33;6.30;;;3.60;;
79792;SDS011;69279;49.072;17.462;2023-07-08T00:38:36;5.30;;;3.80;;
79792;SDS011;69279;49.072;17.462;2023-07-08T00:40:58;5.57;;;3.80;;
79792;SDS011;69279;49.072;17.462;2023-07-08T00:45:57;5.57;;;3.70;;
79792;SDS011;69279;49.072;17.462;2023-07-08T00:48:29;5.30;;;3.80;;
79792;SDS011;69279;49.072;17.462;2023-07-08T00:50:55;6.03;;;4.00;;
79792;SDS011;69279;49.072;17.462;2023-07-08T00:53:29;5.65;;;3.70;;
79792;SDS011;69279;49.072;17.462;2023-07-08T00:56:00;7.20;;;3.58;;
79792;SDS011;69279;49.072;17.462;2023-07-08T00:59:01;4.90;;;3.90;;
79792;SDS011;69279;49.072;17.462;2023-07-08T01:01:27;5.07;;;3.83;;
79792;SDS011;69279;49.072;17.462;2023-07-08T01:03:58;4.63;;;3.50;;
79792;SDS011;69279;49.072;17.462;2023-07-08T01:06:27;6.22;;;4.18;;
79792;SDS011;69279;49.072;17.462;2023-07-08T01:08:56;5.88;;;3.50;;
79792;SDS011;69279;49.072;17.462;2023-07-08T01:11:29;5.93;;;4.13;;
79792;SDS011;69279;49.072;17.462;2023-07-08T01:13:55;5.45;;;3.67;;
79792;SDS011;69279;49.072;17.462;2023-07-08T01:16:20;6.07;;;4.40;;
79792;SDS011;69279;49.072;17.462;2023-07-08T01:18:47;5.72;;;3.80;;
79792;SDS011;69279;49.072;17.462;2023-07-08T01:21:31;6.47;;;4.18;;
79792;SDS011;69279;49.072;17.462;2023-07-08T01:23:59;4.85;;;3.80;;
79792;SDS011;69279;49.072;17.462;2023-07-08T01:26:25;4.90;;;3.90;;
79792;SDS011;69279;49.072;17.462;2023-07-08T01:28:51;6.13;;;4.07;;
79792;SDS011;69279;49.072;17.462;2023-07-08T01:31:18;6.45;;;3.97;;
79792;SDS011;69279;49.072;17.462;2023-07-08T01:33:43;6.25;;;4.47;;
79792;SDS011;69279;49.072;17.462;2023-07-08T01:36:10;5.28;;;4.07;;
79792;SDS011;69279;49.072;17.462;2023-07-08T01:38:36;5.30;;;4.03;;
79792;SDS011;69279;49.072;17.462;2023-07-08T01:41:02;5.90;;;4.57;;
79792;SDS011;69279;49.072;17.462;2023-07-08T01:43:27;7.63;;;4.15;;
79792;SDS011;69279;49.072;17.462;2023-07-08T01:45:52;5.95;;;4.13;;
79792;SDS011;69279;49.072;17.462;2023-07-08T01:48:19;5.93;;;4.53;;
79792;SDS011;69279;49.072;17.462;2023-07-08T01:50:48;6.18;;;4.22;;
79792;SDS011;69279;49.072;17.462;2023-07-08T01:53:18;6.40;;;4.40;;
79792;SDS011;69279;49.072;17.462;2023-07-08T01:55:47;6.15;;;4.55;;
79792;SDS011;69279;49.072;17.462;2023-07-08T01:58:12;5.18;;;4.63;;
79792;SDS011;69279;49.072;17.462;2023-07-08T02:00:38;6.13;;;5.15;;
79792;SDS011;69279;49.072;17.462;2023-07-08T02:03:03;5.93;;;4.45;;
79792;SDS011;69279;49.072;17.462;2023-07-08T02:05:28;5.72;;;4.53;;
79792;SDS011;69279;49.072;17.462;2023-07-08T02:07:54;5.78;;;3.90;;
79792;SDS011;69279;49.072;17.462;2023-07-08T02:10:20;6.13;;;4.35;;
79792;SDS011;69279;49.072;17.462;2023-07-08T02:12:45;6.68;;;4.75;;
79792;SDS011;69279;49.072;17.462;2023-07-08T02:15:11;7.15;;;4.80;;
79792;SDS011;69279;49.072;17.462;2023-07-08T02:17:36;7.30;;;5.00;;
79792;SDS011;69279;49.072;17.462;2023-07-08T02:20:02;5.05;;;4.55;;
79792;SDS011;69279;49.072;17.462;2023-07-08T02:22:27;7.50;;;4.88;;
79792;SDS011;69279;49.072;17.462;2023-07-08T02:24:53;6.57;;;4.45;;
79792;SDS011;69279;49.072;17.462;2023-07-08T02:27:18;5.57;;;4.70;;
79792;SDS011;69279;49.072;17.462;2023-07-08T02:29:44;8.68;;;4.78;;
79792;SDS011;69279;49.072;17.462;2023-07-08T02:32:09;6.43;;;4.38;;
79792;SDS011;69279;49.072;17.462;2023-07-08T02:34:35;5.57;;;4.45;;
79792;SDS011;69279;49.072;17.462;2023-07-08T02:37:03;7.25;;;4.88;;
79792;SDS011;69279;49.072;17.462;2023-07-08T02:39:29;5.90;;;4.13;;
79792;SDS011;69279;49.072;17.462;2023-07-08T02:41:55;5.15;;;4.00;;
79792;SDS011;69279;49.072;17.462;2023-07-08T02:44:21;7.93;;;4.05;;
79792;SDS011;69279;49.072;17.462;2023-07-08T02:46:47;5.60;;;4.55;;
79792;SDS011;69279;49.072;17.462;2023-07-08T02:49:12;5.88;;;4.07;;
79792;SDS011;69279;49.072;17.462;2023-07-08T02:51:38;6.20;;;4.13;;
79792;SDS011;69279;49.072;17.462;2023-07-08T02:54:03;5.72;;;4.13;;
79792;SDS011;69279;49.072;17.462;2023-07-08T02:56:28;5.18;;;4.18;;
79792;SDS011;69279;49.072;17.462;2023-07-08T02:58:54;6.22;;;5.20;;
79792;SDS011;69279;49.072;17.462;2023-07-08T03:01:19;6.65;;;4.60;;
79792;SDS011;69279;49.072;17.462;2023-07-08T03:03:45;6.20;;;4.05;;
79792;SDS011;69279;49.072;17.462;2023-07-08T03:06:11;6.30;;;4.35;;
79792;SDS011;69279;49.072;17.462;2023-07-08T03:08:36;5.93;;;4.03;;
79792;SDS011;69279;49.072;17.462;2023-07-08T03:11:02;4.28;;;3.78;;
79792;SDS011;69279;49.072;17.462;2023-07-08T03:13:29;7.22;;;4.65;;
79792;SDS011;69279;49.072;17.462;2023-07-08T03:15:56;5.57;;;4.13;;
79792;SDS011;69279;49.072;17.462;2023-07-08T03:18:22;5.25;;;4.15;;
79792;SDS011;69279;49.072;17.462;2023-07-08T03:20:52;6.68;;;4.57;;
79792;SDS011;69279;49.072;17.462;2023-07-08T03:23:18;8.48;;;4.60;;
79792;SDS011;69279;49.072;17.462;2023-07-08T03:25:43;8.93;;;5.13;;
79792;SDS011;69279;49.072;17.462;2023-07-08T03:28:09;5.82;;;5.13;;
79792;SDS011;69279;49.072;17.462;2023-07-08T03:30:38;5.95;;;4.82;;
79792;SDS011;69279;49.072;17.462;2023-07-08T03:33:03;7.57;;;5.50;;
79792;SDS011;69279;49.072;17.462;2023-07-08T03:35:28;7.75;;;5.25;;
79792;SDS011;69279;49.072;17.462;2023-07-08T03:37:54;8.05;;;5.07;;
79792;SDS011;69279;49.072;17.462;2023-07-08T03:40:19;7.10;;;4.90;;
79792;SDS011;69279;49.072;17.462;2023-07-08T03:42:44;6.63;;;4.85;;
79792;SDS011;69279;49.072;17.462;2023-07-08T03:45:10;6.97;;;5.10;;
79792;SDS011;69279;49.072;17.462;2023-07-08T03:47:35;7.47;;;5.18;;
79792;SDS011;69279;49.072;17.462;2023-07-08T03:50:01;7.20;;;5.00;;
79792;SDS011;69279;49.072;17.462;2023-07-08T03:52:27;7.22;;;4.65;;
79792;SDS011;69279;49.072;17.462;2023-07-08T03:54:52;6.07;;;4.85;;
79792;SDS011;69279;49.072;17.462;2023-07-08T03:57:19;6.85;;;4.18;;
79792;SDS011;69279;49.072;17.462;2023-07-08T03:59:44;6.05;;;4.45;;
79792;SDS011;69279;49.072;17.462;2023-07-08T04:02:10;6.15;;;4.18;;
79792;SDS011;69279;49.072;17.462;2023-07-08T04:04:36;6.68;;;4.47;;
79792;SDS011;69279;49.072;17.462;2023-07-08T04:07:02;6.93;;;5.28;;
79792;SDS011;69279;49.072;17.462;2023-07-08T04:09:28;6.50;;;4.82;;
79792;SDS011;69279;49.072;17.462;2023-07-08T04:11:54;6.45;;;4.55;;
79792;SDS011;69279;49.072;17.462;2023-07-08T04:14:19;5.97;;;4.63;;
79792;SDS011;69279;49.072;17.462;2023-07-08T04:16:49;5.75;;;4.25;;
79792;SDS011;69279;49.072;17.462;2023-07-08T04:19:16;6.25;;;4.35;;
79792;SDS011;69279;49.072;17.462;2023-07-08T04:21:43;7.68;;;4.88;;
79792;SDS011;69279;49.072;17.462;2023-07-08T04:24:12;8.00;;;5.55;;
79792;SDS011;69279;49.072;17.462;2023-07-08T04:26:40;6.85;;;4.93;;
79792;SDS011;69279;49.072;17.462;2023-07-08T04:29:16;6.57;;;4.72;;
79792;SDS011;69279;49.072;17.462;2023-07-08T04:31:43;7.82;;;5.38;;
79792;SDS011;69279;49.072;17.462;2023-07-08T04:34:09;9.05;;;4.95;;
79792;SDS011;69279;49.072;17.462;2023-07-08T04:36:36;6.63;;;5.00;;
79792;SDS011;69279;49.072;17.462;2023-07-08T04:39:02;8.63;;;5.60;;
79792;SDS011;69279;49.072;17.462;2023-07-08T04:41:29;7.88;;;5.25;;
79792;SDS011;69279;49.072;17.462;2023-07-08T04:43:55;7.60;;;5.40;;
79792;SDS011;69279;49.072;17.462;2023-07-08T04:46:39;7.30;;;5.22;;
79792;SDS011;69279;49.072;17.462;2023-07-08T04:49:06;7.57;;;5.32;;
79792;SDS011;69279;49.072;17.462;2023-07-08T04:51:34;7.55;;;5.65;;
79792;SDS011;69279;49.072;17.462;2023-07-08T04:54:00;9.23;;;5.85;;
79792;SDS011;69279;49.072;17.462;2023-07-08T04:56:26;8.18;;;5.90;;
79792;SDS011;69279;49.072;17.462;2023-07-08T04:59:03;6.50;;;5.85;;
79792;SDS011;69279;49.072;17.462;2023-07-08T05:01:30;9.57;;;6.72;;
79792;SDS011;69279;49.072;17.462;2023-07-08T05:03:55;8.38;;;5.90;;
79792;SDS011;69279;49.072;17.462;2023-07-08T05:06:21;6.68;;;5.65;;
79792;SDS011;69279;49.072;17.462;2023-07-08T05:08:46;10.05;;;6.35;;
79792;SDS011;69279;49.072;17.462;2023-07-08T05:11:11;7.25;;;5.82;;
79792;SDS011;69279;49.072;17.462;2023-07-08T05:13:37;8.82;;;6.40;;
79792;SDS011;69279;49.072;17.462;2023-07-08T05:16:02;10.68;;;6.30;;
79792;SDS011;69279;49.072;17.462;2023-07-08T05:18:27;9.00;;;6.03;;
79792;SDS011;69279;49.072;17.462;2023-07-08T05:20:53;8.20;;;6.40;;
79792;SDS011;69279;49.072;17.462;2023-07-08T05:23:19;9.38;;;5.35;;
79792;SDS011;69279;49.072;17.462;2023-07-08T05:25:45;8.38;;;5.85;;
79792;SDS011;69279;49.072;17.462;2023-07-08T05:28:11;8.55;;;5.75;;
79792;SDS011;69279;49.072;17.462;2023-07-08T05:30:36;9.48;;;5.60;;
79792;SDS011;69279;49.072;17.462;2023-07-08T05:33:04;8.77;;;6.28;;
79792;SDS011;69279;49.072;17.462;2023-07-08T05:35:30;7.82;;;5.80;;
79792;SDS011;69279;49.072;17.462;2023-07-08T05:37:55;8.23;;;5.95;;
79792;SDS011;69279;49.072;17.462;2023-07-08T05:40:20;9.70;;;5.93;;
79792;SDS011;69279;49.072;17.462;2023-07-08T05:42:46;9.00;;;5.85;;
79792;SDS011;69279;49.072;17.462;2023-07-08T05:45:11;9.13;;;5.75;;
79792;SDS011;69279;49.072;17.462;2023-07-08T05:47:37;10.23;;;5.68;;
79792;SDS011;69279;49.072;17.462;2023-07-08T05:50:04;8.00;;;5.85;;
79792;SDS011;69279;49.072;17.462;2023-07-08T05:52:29;7.78;;;5.35;;
79792;SDS011;69279;49.072;17.462;2023-07-08T05:54:55;8.25;;;5.38;;
79792;SDS011;69279;49.072;17.462;2023-07-08T05:57:20;7.30;;;4.97;;
79792;SDS011;69279;49.072;17.462;2023-07-08T05:59:47;7.30;;;5.00;;
79792;SDS011;69279;49.072;17.462;2023-07-08T06:02:12;6.32;;;4.50;;
79792;SDS011;69279;49.072;17.462;2023-07-08T06:04:38;6.18;;;4.43;;
79792;SDS011;69279;49.072;17.462;2023-07-08T06:07:04;4.78;;;4.18;;
79792;SDS011;69279;49.072;17.462;2023-07-08T06:09:30;5.25;;;4.13;;
79792;SDS011;69279;49.072;17.462;2023-07-08T06:11:55;6.75;;;4.47;;
79792;SDS011;69279;49.072;17.462;2023-07-08T06:14:21;6.25;;;4.35;;
79792;SDS011;69279;49.072;17.462;2023-07-08T06:16:46;5.85;;;4.18;;
79792;SDS011;69279;49.072;17.462;2023-07-08T06:19:12;6.28;;;4.32;;
79792;SDS011;69279;49.072;17.462;2023-07-08T06:21:40;6.05;;;4.28;;
79792;SDS011;69279;49.072;17.462;2023-07-08T06:24:05;8.73;;;4.38;;
79792;SDS011;69279;49.072;17.462;2023-07-08T06:26:31;6.32;;;4.20;;
79792;SDS011;69279;49.072;17.462;2023-07-08T06:28:56;6.32;;;4.28;;
79792;SDS011;69279;49.072;17.462;2023-07-08T06:31:22;5.30;;;4.13;;
79792;SDS011;69279;49.072;17.462;2023-07-08T06:33:47;5.68;;;3.95;;
79792;SDS011;69279;49.072;17.462;2023-07-08T06:36:12;4.20;;;3.80;;
79792;SDS011;69279;49.072;17.462;2023-07-08T06:38:38;6.60;;;4.15;;
79792;SDS011;69279;49.072;17.462;2023-07-08T06:41:04;4.65;;;3.50;;
79792;SDS011;69279;49.072;17.462;2023-07-08T06:43:29;4.03;;;3.55;;
79792;SDS011;69279;49.072;17.462;2023-07-08T06:45:55;4.47;;;3.88;;
79792;SDS011;69279;49.072;17.462;2023-07-08T06:48:20;7.70;;;4.25;;
79792;SDS011;69279;49.072;17.462;2023-07-08T06:50:47;5.03;;;3.80;;
79792;SDS011;69279;49.072;17.462;2023-07-08T06:53:13;4.40;;;4.00;;
79792;SDS011;69279;49.072;17.462;2023-07-08T06:55:39;5.70;;;4.47;;
79792;SDS011;69279;49.072;17.462;2023-07-08T06:58:04;5.82;;;4.03;;
79792;SDS011;69279;49.072;17.462;2023-07-08T07:00:30;5.75;;;3.95;;
79792;SDS011;69279;49.072;17.462;2023-07-08T07:02:55;4.72;;;3.47;;
79792;SDS011;69279;49.072;17.462;2023-07-08T07:05:21;4.80;;;4.10;;
79792;SDS011;69279;49.072;17.462;2023-07-08T07:07:46;4.50;;;4.07;;
79792;SDS011;69279;49.072;17.462;2023-07-08T07:10:11;5.97;;;4.40;;
79792;SDS011;69279;49.072;17.462;2023-07-08T07:12:37;5.50;;;3.72;;
79792;SDS011;69279;49.072;17.462;2023-07-08T07:15:02;5.80;;;4.05;;
79792;SDS011;69279;49.072;17.462;2023-07-08T07:17:28;5.47;;;4.00;;
79792;SDS011;69279;49.072;17.462;2023-07-08T07:19:54;4.95;;;4.28;;
79792;SDS011;69279;49.072;17.462;2023-07-08T07:22:19;5.13;;;4.20;;
79792;SDS011;69279;49.072;17.462;2023-07-08T07:24:45;4.40;;;3.97;;
79792;SDS011;69279;49.072;17.462;2023-07-08T07:27:10;5.13;;;4.10;;
79792;SDS011;69279;49.072;17.462;2023-07-08T07:29:46;6.97;;;4.10;;
79792;SDS011;69279;49.072;17.462;2023-07-08T07:32:13;4.78;;;3.35;;
79792;SDS011;69279;49.072;17.462;2023-07-08T07:34:39;4.20;;;3.80;;
79792;SDS011;69279;49.072;17.462;2023-07-08T07:37:05;6.65;;;4.40;;
79792;SDS011;69279;49.072;17.462;2023-07-08T07:39:31;4.20;;;3.80;;
79792;SDS011;69279;49.072;17.462;2023-07-08T07:41:57;5.28;;;3.75;;
79792;SDS011;69279;49.072;17.462;2023-07-08T07:44:22;6.72;;;3.83;;
79792;SDS011;69279;49.072;17.462;2023-07-08T07:46:49;9.85;;;4.22;;
79792;SDS011;69279;49.072;17.462;2023-07-08T07:49:15;4.25;;;3.47;;
79792;SDS011;69279;49.072;17.462;2023-07-08T07:51:40;5.47;;;3.40;;
79792;SDS011;69279;49.072;17.462;2023-07-08T07:54:06;5.57;;;3.55;;
79792;SDS011;69279;49.072;17.462;2023-07-08T07:56:31;6.18;;;3.10;;
79792;SDS011;69279;49.072;17.462;2023-07-08T07:58:57;4.30;;;3.15;;
79792;SDS011;69279;49.072;17.462;2023-07-08T08:01:23;4.53;;;3.30;;
79792;SDS011;69279;49.072;17.462;2023-07-08T08:03:48;3.88;;;2.90;;
79792;SDS011;69279;49.072;17.462;2023-07-08T08:06:16;5.63;;;3.33;;
79792;SDS011;69279;49.072;17.462;2023-07-08T08:08:43;3.58;;;3.10;;
79792;SDS011;69279;49.072;17.462;2023-07-08T08:11:08;3.95;;;3.03;;
79792;SDS011;69279;49.072;17.462;2023-07-08T08:13:34;3.55;;;3.03;;
79792;SDS011;69279;49.072;17.462;2023-07-08T08:15:59;3.45;;;3.15;;
79792;SDS011;69279;49.072;17.462;2023-07-08T08:18:25;4.68;;;3.22;;
79792;SDS011;69279;49.072;17.462;2023-07-08T08:20:51;3.85;;;3.30;;
79792;SDS011;69279;49.072;17.462;2023-07-08T08:23:17;3.80;;;3.10;;
79792;SDS011;69279;49.072;17.462;2023-07-08T08:25:42;4.18;;;3.20;;
79792;SDS011;69279;49.072;17.462;2023-07-08T08:28:08;3.88;;;3.10;;
79792;SDS011;69279;49.072;17.462;2023-07-08T08:30:34;5.53;;;3.22;;
79792;SDS011;69279;49.072;17.462;2023-07-08T08:32:59;7.32;;;3.25;;
79792;SDS011;69279;49.072;17.462;2023-07-08T08:35:25;3.67;;;3.38;;
79792;SDS011;69279;49.072;17.462;2023-07-08T08:37:51;5.47;;;2.90;;
79792;SDS011;69279;49.072;17.462;2023-07-08T08:40:18;4.30;;;3.30;;
79792;SDS011;69279;49.072;17.462;2023-07-08T08:42:45;3.15;;;2.88;;
79792;SDS011;69279;49.072;17.462;2023-07-08T08:45:15;4.00;;;3.17;;
79792;SDS011;69279;49.072;17.462;2023-07-08T08:47:47;3.65;;;3.35;;
79792;SDS011;69279;49.072;17.462;2023-07-08T08:53:03;2.92;;;2.63;;
79792;SDS011;69279;49.072;17.462;2023-07-08T08:55:30;4.18;;;2.88;;
79792;SDS011;69279;49.072;17.462;2023-07-08T08:58:08;4.68;;;3.00;;
79792;SDS011;69279;49.072;17.462;2023-07-08T09:05:56;3.95;;;2.83;;
79792;SDS011;69279;49.072;17.462;2023-07-08T09:08:26;4.05;;;3.22;;
79792;SDS011;69279;49.072;17.462;2023-07-08T09:13:28;3.63;;;3.17;;
79792;SDS011;69279;49.072;17.462;2023-07-08T09:26:39;3.13;;;2.78;;
79792;SDS011;69279;49.072;17.462;2023-07-08T09:29:07;4.80;;;2.85;;
79792;SDS011;69279;49.072;17.462;2023-07-08T09:31:37;4.35;;;2.80;;
79792;SDS011;69279;49.072;17.462;2023-07-08T09:34:14;4.07;;;2.90;;
79792;SDS011;69279;49.072;17.462;2023-07-08T09:36:42;3.20;;;2.90;;
79792;SDS011;69279;49.072;17.462;2023-07-08T09:39:13;4.68;;;2.85;;
79792;SDS011;69279;49.072;17.462;2023-07-08T09:41:40;3.35;;;2.60;;
79792;SDS011;69279;49.072;17.462;2023-07-08T09:44:13;3.70;;;3.20;;
79792;SDS011;69279;49.072;17.462;2023-07-08T09:46:42;3.05;;;2.80;;
79792;SDS011;69279;49.072;17.462;2023-07-08T09:51:47;4.22;;;3.08;;
79792;SDS011;69279;49.072;17.462;2023-07-08T09:54:15;4.22;;;3.13;;
79792;SDS011;69279;49.072;17.462;2023-07-08T09:56:42;4.43;;;3.00;;
79792;SDS011;69279;49.072;17.462;2023-07-08T09:59:11;4.63;;;2.90;;
79792;SDS011;69279;49.072;17.462;2023-07-08T10:01:39;3.42;;;2.97;;
79792;SDS011;69279;49.072;17.462;2023-07-08T10:04:05;4.00;;;3.50;;
79792;SDS011;69279;49.072;17.462;2023-07-08T10:06:32;3.50;;;2.63;;
79792;SDS011;69279;49.072;17.462;2023-07-08T10:09:03;3.15;;;2.47;;
79792;SDS011;69279;49.072;17.462;2023-07-08T10:11:30;3.88;;;2.75;;
79792;SDS011;69279;49.072;17.462;2023-07-08T10:13:59;3.35;;;3.03;;
79792;SDS011;69279;49.072;17.462;2023-07-08T10:16:29;3.35;;;2.63;;
79792;SDS011;69279;49.072;17.462;2023-07-08T10:18:56;3.47;;;3.08;;
79792;SDS011;69279;49.072;17.462;2023-07-08T10:24:22;4.80;;;3.08;;
79792;SDS011;69279;49.072;17.462;2023-07-08T10:32:41;2.70;;;2.50;;
79792;SDS011;69279;49.072;17.462;2023-07-08T10:35:18;2.97;;;2.78;;
79792;SDS011;69279;49.072;17.462;2023-07-08T10:46:03;3.07;;;2.77;;
79792;SDS011;69279;49.072;17.462;2023-07-08T10:51:46;3.10;;;2.72;;
79792;SDS011;69279;49.072;17.462;2023-07-08T10:56:59;3.10;;;2.75;;
79792;SDS011;69279;49.072;17.462;2023-07-08T11:02:27;3.08;;;2.70;;
79792;SDS011;69279;49.072;17.462;2023-07-08T11:05:21;3.15;;;2.85;;
79792;SDS011;69279;49.072;17.462;2023-07-08T11:07:56;3.83;;;3.42;;
79792;SDS011;69279;49.072;17.462;2023-07-08T11:10:27;4.63;;;3.80;;
79792;SDS011;69279;49.072;17.462;2023-07-08T11:15:28;3.85;;;3.10;;
79792;SDS011;69279;49.072;17.462;2023-07-08T11:18:05;3.92;;;3.03;;
79792;SDS011;69279;49.072;17.462;2023-07-08T11:23:32;3.60;;;2.92;;
79792;SDS011;69279;49.072;17.462;2023-07-08T11:26:15;3.58;;;3.10;;
79792;SDS011;69279;49.072;17.462;2023-07-08T11:28:44;3.83;;;3.05;;
79792;SDS011;69279;49.072;17.462;2023-07-08T11:31:10;3.42;;;2.60;;
79792;SDS011;69279;49.072;17.462;2023-07-08T11:33:37;3.65;;;2.78;;
79792;SDS011;69279;49.072;17.462;2023-07-08T11:36:03;3.05;;;2.72;;
79792;SDS011;69279;49.072;17.462;2023-07-08T11:38:29;3.17;;;2.88;;
79792;SDS011;69279;49.072;17.462;2023-07-08T11:43:33;4.82;;;3.00;;
79792;SDS011;69279;49.072;17.462;2023-07-08T11:46:06;3.17;;;2.67;;
79792;SDS011;69279;49.072;17.462;2023-07-08T11:48:36;2.60;;;2.40;;
79792;SDS011;69279;49.072;17.462;2023-07-08T11:51:05;4.20;;;3.10;;
79792;SDS011;69279;49.072;17.462;2023-07-08T11:53:35;3.10;;;2.53;;
79792;SDS011;69279;49.072;17.462;2023-07-08T12:03:47;3.28;;;2.97;;
79792;SDS011;69279;49.072;17.462;2023-07-08T12:08:53;6.00;;;3.10;;
79792;SDS011;69279;49.072;17.462;2023-07-08T12:11:42;3.10;;;2.80;;
79792;SDS011;69279;49.072;17.462;2023-07-08T12:14:09;3.17;;;2.88;;
79792;SDS011;69279;49.072;17.462;2023-07-08T12:16:34;4.10;;;3.28;;
79792;SDS011;69279;49.072;17.462;2023-07-08T12:19:00;3.92;;;3.10;;
79792;SDS011;69279;49.072;17.462;2023-07-08T12:21:27;3.78;;;2.97;;
79792;SDS011;69279;49.072;17.462;2023-07-08T12:23:53;3.85;;;2.83;;
79792;SDS011;69279;49.072;17.462;2023-07-08T12:26:18;3.25;;;2.70;;
79792;SDS011;69279;49.072;17.462;2023-07-08T12:28:44;3.60;;;2.80;;
79792;SDS011;69279;49.072;17.462;2023-07-08T12:31:16;2.83;;;2.63;;
79792;SDS011;69279;49.072;17.462;2023-07-08T12:33:43;2.95;;;2.60;;
79792;SDS011;69279;49.072;17.462;2023-07-08T12:36:10;3.42;;;2.78;;
79792;SDS011;69279;49.072;17.462;2023-07-08T12:38:42;5.07;;;2.97;;
79792;SDS011;69279;49.072;17.462;2023-07-08T12:41:11;2.78;;;2.58;;
79792;SDS011;69279;49.072;17.462;2023-07-08T12:43:38;4.00;;;3.15;;
79792;SDS011;69279;49.072;17.462;2023-07-08T12:46:03;3.05;;;2.75;;
79792;SDS011;69279;49.072;17.462;2023-07-08T12:48:36;3.30;;;3.05;;
79792;SDS011;69279;49.072;17.462;2023-07-08T12:51:02;4.82;;;2.80;;
79792;SDS011;69279;49.072;17.462;2023-07-08T12:53:28;3.58;;;2.45;;
79792;SDS011;69279;49.072;17.462;2023-07-08T12:55:54;3.00;;;2.70;;
79792;SDS011;69279;49.072;17.462;2023-07-08T12:58:24;2.95;;;2.60;;
79792;SDS011;69279;49.072;17.462;2023-07-08T13:00:53;5.75;;;3.08;;
79792;SDS011;69279;49.072;17.462;2023-07-08T13:03:22;2.60;;;2.40;;
79792;SDS011;69279;49.072;17.462;2023-07-08T13:05:49;3.88;;;2.70;;
79792;SDS011;69279;49.072;17.462;2023-07-08T13:08:16;2.80;;;2.53;;
79792;SDS011;69279;49.072;17.462;2023-07-08T13:10:43;3.70;;;2.53;;
79792;SDS011;69279;49.072;17.462;2023-07-08T13:13:17;2.97;;;2.55;;
79792;SDS011;69279;49.072;17.462;2023-07-08T13:15:45;4.25;;;2.70;;
79792;SDS011;69279;49.072;17.462;2023-07-08T13:18:32;3.17;;;2.88;;
79792;SDS011;69279;49.072;17.462;2023-07-08T13:20:57;3.50;;;2.85;;
79792;SDS011;69279;49.072;17.462;2023-07-08T13:23:24;3.90;;;3.05;;
79792;SDS011;69279;49.072;17.462;2023-07-08T13:25:51;3.17;;;2.72;;
79792;SDS011;69279;49.072;17.462;2023-07-08T13:28:37;3.47;;;3.10;;
79792;SDS011;69279;49.072;17.462;2023-07-08T13:31:19;3.33;;;2.92;;
79792;SDS011;69279;49.072;17.462;2023-07-08T13:33:49;3.47;;;2.80;;
79792;SDS011;69279;49.072;17.462;2023-07-08T13:36:18;2.90;;;2.60;;
79792;SDS011;69279;49.072;17.462;2023-07-08T13:38:46;3.55;;;2.90;;
79792;SDS011;69279;49.072;17.462;2023-07-08T13:41:15;2.97;;;2.67;;
79792;SDS011;69279;49.072;17.462;2023-07-08T13:43:44;3.00;;;2.70;;
79792;SDS011;69279;49.072;17.462;2023-07-08T13:46:30;3.05;;;2.75;;
79792;SDS011;69279;49.072;17.462;2023-07-08T13:48:55;2.72;;;2.40;;
79792;SDS011;69279;49.072;17.462;2023-07-08T13:51:22;3.20;;;2.90;;
79792;SDS011;69279;49.072;17.462;2023-07-08T13:53:49;2.83;;;2.63;;
79792;SDS011;69279;49.072;17.462;2023-07-08T13:59:00;3.35;;;2.70;;
79792;SDS011;69279;49.072;17.462;2023-07-08T14:01:27;3.25;;;2.90;;
79792;SDS011;69279;49.072;17.462;2023-07-08T14:03:55;4.03;;;2.65;;
79792;SDS011;69279;49.072;17.462;2023-07-08T14:06:22;3.13;;;2.65;;
79792;SDS011;69279;49.072;17.462;2023-07-08T14:08:53;3.20;;;2.90;;
79792;SDS011;69279;49.072;17.462;2023-07-08T14:11:20;4.35;;;2.95;;
79792;SDS011;69279;49.072;17.462;2023-07-08T14:13:45;2.83;;;2.58;;
79792;SDS011;69279;49.072;17.462;2023-07-08T14:16:23;4.20;;;2.58;;
79792;SDS011;69279;49.072;17.462;2023-07-08T14:18:52;5.03;;;2.90;;
79792;SDS011;69279;49.072;17.462;2023-07-08T14:21:19;3.28;;;2.78;;
79792;SDS011;69279;49.072;17.462;2023-07-08T14:23:45;3.67;;;2.53;;
79792;SDS011;69279;49.072;17.462;2023-07-08T14:26:11;3.67;;;2.40;;
79792;SDS011;69279;49.072;17.462;2023-07-08T14:28:36;3.90;;;2.33;;
79792;SDS011;69279;49.072;17.462;2023-07-08T14:31:02;2.92;;;2.63;;
79792;SDS011;69279;49.072;17.462;2023-07-08T14:33:27;4.60;;;3.03;;
79792;SDS011;69279;49.072;17.462;2023-07-08T14:35:53;3.88;;;2.80;;
79792;SDS011;69279;49.072;17.462;2023-07-08T14:38:18;4.53;;;2.83;;
79792;SDS011;69279;49.072;17.462;2023-07-08T14:40:43;5.47;;;2.55;;
79792;SDS011;69279;49.072;17.462;2023-07-08T14:43:13;4.15;;;2.92;;
79792;SDS011;69279;49.072;17.462;2023-07-08T14:45:43;3.33;;;2.78;;
79792;SDS011;69279;49.072;17.462;2023-07-08T14:48:11;2.78;;;2.50;;
79792;SDS011;69279;49.072;17.462;2023-07-08T14:50:37;3.03;;;2.47;;
79792;SDS011;69279;49.072;17.462;2023-07-08T14:53:03;3.50;;;2.97;;
79792;SDS011;69279;49.072;17.462;2023-07-08T14:55:29;3.25;;;2.70;;
79792;SDS011;69279;49.072;17.462;2023-07-08T14:57:54;3.45;;;2.53;;
79792;SDS011;69279;49.072;17.462;2023-07-08T15:00:21;4.22;;;2.95;;
79792;SDS011;69279;49.072;17.462;2023-07-08T15:02:47;3.28;;;2.42;;
79792;SDS011;69279;49.072;17.462;2023-07-08T15:07:54;3.78;;;2.78;;
79792;SDS011;69279;49.072;17.462;2023-07-08T15:10:26;4.80;;;2.70;;
79792;SDS011;69279;49.072;17.462;2023-07-08T15:12:53;3.42;;;2.45;;
79792;SDS011;69279;49.072;17.462;2023-07-08T15:15:27;4.10;;;3.30;;
79792;SDS011;69279;49.072;17.462;2023-07-08T15:17:55;3.47;;;2.95;;
79792;SDS011;69279;49.072;17.462;2023-07-08T15:20:25;3.13;;;2.67;;
79792;SDS011;69279;49.072;17.462;2023-07-08T15:22:51;2.70;;;2.45;;
79792;SDS011;69279;49.072;17.462;2023-07-08T15:25:17;4.13;;;2.65;;
79792;SDS011;69279;49.072;17.462;2023-07-08T15:27:44;4.03;;;3.08;;
79792;SDS011;69279;49.072;17.462;2023-07-08T15:30:25;3.13;;;2.33;;
79792;SDS011;69279;49.072;17.462;2023-07-08T15:32:52;3.15;;;2.85;;
79792;SDS011;69279;49.072;17.462;2023-07-08T15:35:20;3.13;;;2.80;;
79792;SDS011;69279;49.072;17.462;2023-07-08T15:37:46;3.10;;;2.80;;
79792;SDS011;69279;49.072;17.462;2023-07-08T15:40:13;2.67;;;2.47;;
79792;SDS011;69279;49.072;17.462;2023-07-08T15:42:40;4.05;;;2.80;;
79792;SDS011;69279;49.072;17.462;2023-07-08T15:47:34;5.97;;;2.60;;
79792;SDS011;69279;49.072;17.462;2023-07-08T15:49:59;4.90;;;2.90;;
79792;SDS011;69279;49.072;17.462;2023-07-08T15:52:25;3.45;;;2.65;;
79792;SDS011;69279;49.072;17.462;2023-07-08T15:54:50;3.50;;;2.72;;